Logo AVAMET
Benvolgut visitant, si us plau, ingressa Recuperar contrasenya
AVAMET paisatges

Oriola Platja Flamenca

Dades diàries. Acumulats / Últims 30 dies disponibles

Data Temperatura (°C) Humitat rel. (%) Pressió rel. (hPa) Vent (km/h) Precipitació
Mínima Mitjana Màxima Amplitud
tèrmica
Mínima Mitjana Màxima Mínima Mitjana Màxima Predom. Mitjana Ràfega
màxima
Total
(mm)
Índex-n
Mínima Mitjana Màxima Mínima Mitjana Màxima n
0 a 1
P0 max
mm 5'
Dades mensuals acumulades fins l'últim dia disponible
02/2020 8,9 11,5 15,7 14,8 15,2 18,5 26,8 17,9 30 76 93 1.022 1.028 1.036   5,5 40,2 3,8
Dades anuals acumulades fins l'últim dia disponible
2020 5,8 10,0 15,7 13,4 12,7 17,1 26,8 21,0 30 75 93 1.010 1.026 1.036   5,4 67,6 50,6
Últims 30 dies disponibles
23-02-2020 9,6     13,2     18,0 8,4 58 81 92 1.032 1.034 1.036 SSO 5,7 17,7 0,0
22-02-2020 8,9     12,6     15,7 6,8 76 84 89 1.031 1.032 1.034 WNW 4,3 19,3 0,0
21-02-2020 9,4     12,6     15,8 6,4 68 81 89 1.027 1.030 1.032 ESE 5,1 17,7 0,0
20-02-2020 9,4     12,9     16,2 6,8 71 82 90 1.025 1.027 1.030 ESE 4,8 14,5 0,0
19-02-2020 12,7     14,6     16,4 3,7 76 84 90 1.030 1.031 1.033 WSW 4,5 22,5 2,6
18-02-2020 13,6     14,6     17,1 3,5 68 88 93 1.027 1.030 1.032 SSW 9,7 40,2 1,2 0,20
17-02-2020 9,1     14,7     20,6 11,5 61 69 75 1.023 1.025 1.027 NW 4,7 27,4 0,0
09-02-2020 12,4     14,8     16,6 4,2 67 78 87 1.027 1.030 1.033 ESE 5,8 20,9 0,0
08-02-2020 9,4     13,4     18,4 9,0 65 79 88 1.024 1.026 1.027 ESE 2,7 24,1 0,0
07-02-2020 10,2     12,4     15,2 5,0 69 77 84 1.024 1.025 1.026 ESE 4,8 16,1 0,0
06-02-2020 10,2     12,7     15,6 5,4 72 78 91 1.025 1.027 1.029 ESE 5,6 22,5 0,0
05-02-2020 13,2     15,0     16,3 3,1 69 77 86 1.027 1.029 1.031 OSO 8,0 33,8 0,0
04-02-2020 12,5     20,0     26,8 14,3 30 54 86 1.022 1.025 1.029 E 5,7 30,6 0,0
03-02-2020 12,4     16,0     20,3 7,9 60 78 91 1.027 1.029 1.031 W 1,9 16,1 0,0
02-02-2020 15,7     18,1     22,4 6,7 57 67 76 1.027 1.028 1.030 S 7,7 29,0 0,0
01-02-2020 14,9     19,2     24,1 9,2 51 61 75 1.022 1.024 1.027 E 7,4 35,4 0,0
31-01-2020 14,4     17,8     22,3 7,9 50 61 73 1.022 1.023 1.024 SE 7,6 38,6 0,0
30-01-2020 13,5     16,5     20,7 7,2 46 71 82 1.021 1.023 1.024 SSO 4,8 22,5 0,0
29-01-2020 13,2     16,9     21,0 7,8 52 62 73 1.022 1.023 1.025 SE 5,5 30,6 0,0
28-01-2020 11,2     15,4     20,2 9,0 51 63 70 1.022 1.024 1.025 SO 4,4 24,1 0,0
27-01-2020 9,3     12,9     17,1 7,8 51 67 82 1.023 1.025 1.027 SSO 7,0 25,7 0,0
26-01-2020 9,9     13,2     17,8 7,9 50 72 88 1.019 1.021 1.026 E 5,5 27,4 0,0
25-01-2020 10,8     12,8     15,3 4,5 74 84 90 1.017 1.019 1.021 SSE 3,4 24,1 0,0
24-01-2020 10,9     13,3     15,4 4,5 78 83 89 1.020 1.021 1.022 SSE 8,3 32,2 0,0
23-01-2020 8,5     12,1     15,8 7,3 78 85 90 1.019 1.020 1.022 SSE 5,1 19,3 0,0
22-01-2020 9,7     13,4     15,9 6,2 74 80 88 1.016 1.017 1.019 S 5,9 29,0 0,0
21-01-2020 8,9     11,2     13,9 5,0 73 85 92 1.010 1.013 1.017 S 9,3 48,3 16,6 0,68 3,20
20-01-2020 7,9     9,7     12,7 4,8 74 84 91 1.012 1.015 1.017 SE 13,1 67,6 15,6 0,66 3,10
19-01-2020 7,4     11,1     13,9 6,5 60 74 87 1.014 1.015 1.021 ESE 11,9 64,4 13,2 0,29 1,70
18-01-2020 10,7     12,8     15,7 5,0 56 71 86 1.021 1.028 1.033 NW 3,1 19,3 0,0
Últims 13 mesos disponibles
02/2020 8,9 11,5 15,7 14,8 15,2 18,5 26,8 17,9 54 76 88 1.024 1.028 1.034 ESE 5,5 40,2 3,8
01/2020 5,8 9,2 14,4 12,7 12,7 16,5 22,3 16,5 61 75 85 1.013 1.025 1.033 S 5,4 67,6 46,8
12/2019 8,9 11,9 16,0 14,8 13,7 18,4 24,4 15,5 46 71 88 1.005 1.019 1.033 ESE 6,5 67,6 56,6
11/2019 8,7 13,1 20,9 16,5 15,8 20,5 28,6 19,9 44 57 87 1.001 1.012 1.019 ESE 7,3 51,5 11,6
09/2019 16,7 21,3 23,7 24,2 22,9 27,4 30,7 14,0 NW 7,6 61,2 61,8
Tots els anys disponibles
Temperatura (°C)
Humitat relativa (%)
Velocitat del vent i ràfega màxima (km/h)
Direcció del vent (°)
Pressió (hPa)
Precipitació (mm)
Nota sobre les dades: s'avisa a l'usuari de la provisionalitat i no oficialitat d'aquestes dades
Logo AVAMET blanc
Web allotjada a Sollutia
Llicència de Creative CommonsLa web d'AVAMET i els seus continguts estan subjectes a una llicència de
Reconeixement - No Comercial - Compartir igual
Últimes estacions:  Altea - Com. Regants (Soci), Almoines (Inforatge), Beniparrell (Inforatge), Albal (Inforatge), Almussafes - Parc Industrial (Inforatge), La Vilavella (Soci), la Serratella (soci) - - -